Time;durP1;ratioP1;P1;durP2;ratioP2;P2;SDS_P1;SDS_P2;PMS_P1;PMS_P2;Temp;Humidity;BMP_temperature;BMP_pressure;BME280_temperature;BME280_humidity;BME280_pressure;Samples;Min_cycle;Max_cycle;Signal;HPM_P1;HPM_P2
2023/03/11 00:00:34;;;;;;;12.00;7.00;;;;;;;14.20;45.49;99051.73;108152;1287;22076;-68
2023/03/11 00:03:01;;;;;;;10.70;6.50;;;;;;;14.27;45.49;99045.55;108046;1287;23765;-65
2023/03/11 00:05:32;;;;;;;13.60;6.70;;;;;;;14.36;45.41;99045.67;108138;1288;21980;-69
2023/03/11 00:08:02;;;;;;;8.80;6.70;;;;;;;14.42;45.59;99043.41;108127;1288;21984;-64
2023/03/11 00:10:31;;;;;;;8.70;6.40;;;;;;;14.47;45.54;99038.41;108008;1288;22001;-68
2023/03/11 00:12:59;;;;;;;10.90;7.30;;;;;;;14.52;45.63;99034.31;108044;1288;23780;-67
2023/03/11 00:15:26;;;;;;;11.80;7.00;;;;;;;14.54;45.65;99024.33;108014;1288;22083;-68
2023/03/11 00:17:57;;;;;;;10.20;6.90;;;;;;;14.57;45.77;99019.58;108033;1288;21976;-68
2023/03/11 00:20:28;;;;;;;10.30;6.80;;;;;;;14.60;45.60;99018.02;108031;1288;23973;-65
2023/03/11 00:22:53;;;;;;;10.90;6.90;;;;;;;14.64;45.94;99014.82;106988;1288;1002262;-68
2023/03/11 00:25:22;;;;;;;11.50;6.90;;;;;;;14.65;46.15;99013.86;108057;1288;23832;-64
2023/03/11 00:27:48;;;;;;;11.40;7.50;;;;;;;14.67;46.31;99012.55;108062;1288;22005;-64
2023/03/11 00:30:15;;;;;;;11.80;7.00;;;;;;;14.70;46.48;99012.22;108100;1287;21991;-68
2023/03/11 00:32:40;;;;;;;8.40;7.00;;;;;;;14.72;46.96;99008.24;108184;1288;21994;-64
2023/03/11 00:35:07;;;;;;;8.80;6.60;;;;;;;14.74;47.00;99000.92;108143;1276;21984;-65
2023/03/11 00:37:34;;;;;;;9.00;6.40;;;;;;;14.77;46.97;98995.46;108195;1287;21987;-64
2023/03/11 00:39:59;;;;;;;9.20;6.30;;;;;;;14.79;47.95;98995.91;108141;1288;21992;-68
2023/03/11 00:42:25;;;;;;;12.00;8.00;;;;;;;14.82;47.92;98986.20;107979;1288;21994;-65
2023/03/11 00:44:51;;;;;;;10.30;6.60;;;;;;;14.81;49.22;98981.98;107898;1288;21994;-65
2023/03/11 00:47:16;;;;;;;10.00;6.50;;;;;;;14.83;49.09;98972.54;108046;1288;21989;-64
2023/03/11 00:49:43;;;;;;;12.80;6.50;;;;;;;14.89;48.99;98961.83;108137;1288;22172;-66
2023/03/11 00:52:09;;;;;;;9.80;7.10;;;;;;;14.86;49.25;98951.56;107982;1288;22012;-68
2023/03/11 00:54:35;;;;;;;9.50;6.50;;;;;;;14.95;49.38;98941.53;108167;1279;21969;-67
2023/03/11 00:57:01;;;;;;;8.80;7.10;;;;;;;15.04;49.87;98931.17;108058;1288;22010;-65
2023/03/11 00:59:27;;;;;;;10.10;6.40;;;;;;;15.09;49.29;98925.64;107958;1288;22412;-68
2023/03/11 01:01:53;;;;;;;10.00;6.10;;;;;;;15.13;48.96;98919.90;106495;1288;1003545;-68
2023/03/11 01:04:21;;;;;;;6.90;5.80;;;;;;;15.18;49.06;98912.94;108012;1288;21988;-65
2023/03/11 01:06:48;;;;;;;9.80;6.20;;;;;;;15.20;49.91;98919.36;107973;1288;22012;-65
2023/03/11 01:09:14;;;;;;;10.40;6.80;;;;;;;15.20;51.12;98921.16;107911;1288;23676;-65
2023/03/11 01:11:41;;;;;;;10.40;6.80;;;;;;;15.18;53.14;98923.38;108001;1288;21995;-65
2023/03/11 01:14:07;;;;;;;9.80;6.50;;;;;;;15.20;52.76;98920.64;108022;1281;22038;-69
2023/03/11 01:16:33;;;;;;;11.50;7.00;;;;;;;15.16;56.38;98922.41;107972;1288;21996;-68
2023/03/11 01:18:58;;;;;;;12.80;6.80;;;;;;;15.18;58.72;98904.08;108032;1288;22008;-66
2023/03/11 01:21:24;;;;;;;12.70;7.30;;;;;;;15.16;62.90;98913.41;108124;1288;21992;-62
2023/03/11 01:23:50;;;;;;;12.70;7.50;;;;;;;15.19;60.62;98906.70;108156;1280;21997;-62
2023/03/11 01:26:16;;;;;;;10.10;6.90;;;;;;;15.17;62.02;98903.10;108098;1288;21985;-66
2023/03/11 01:28:41;;;;;;;11.60;6.70;;;;;;;15.19;61.82;98890.99;108088;1288;21982;-60
2023/03/11 01:31:08;;;;;;;11.00;7.40;;;;;;;15.22;61.45;98884.67;108158;1288;23844;-62
2023/03/11 01:33:34;;;;;;;10.20;6.80;;;;;;;15.23;61.36;98878.20;108225;1288;21987;-62
2023/03/11 01:36:00;;;;;;;9.60;6.50;;;;;;;15.25;60.72;98875.64;108149;1287;21994;-67
2023/03/11 01:38:26;;;;;;;12.00;7.70;;;;;;;15.26;61.11;98871.13;108097;1288;22057;-67
2023/03/11 01:40:52;;;;;;;9.40;7.00;;;;;;;15.25;63.62;98872.83;108158;1288;22008;-61
2023/03/11 01:43:44;;;;;;;10.70;6.60;;;;;;;15.25;63.24;98865.52;108176;1287;22025;-61
2023/03/11 01:46:29;;;;;;;13.60;7.40;;;;;;;15.27;63.49;98864.93;108134;1288;23619;-68
2023/03/11 01:48:57;;;;;;;10.70;6.70;;;;;;;15.28;64.86;98860.29;108176;1274;21989;-62
2023/03/11 01:51:29;;;;;;;10.50;7.10;;;;;;;15.29;63.70;98852.40;108212;1288;22005;-61
2023/03/11 01:54:03;;;;;;;13.00;7.20;;;;;;;15.30;64.15;98848.14;108140;1288;21989;-67
2023/03/11 01:56:30;;;;;;;10.10;7.50;;;;;;;15.29;65.12;98846.62;108022;1288;22004;-68
2023/03/11 01:58:55;;;;;;;11.10;7.10;;;;;;;15.28;65.24;98841.89;108023;1288;22090;-62
2023/03/11 02:01:22;;;;;;;10.60;7.70;;;;;;;15.25;65.77;98838.70;107856;1288;22015;-68
2023/03/11 02:03:49;;;;;;;12.50;8.00;;;;;;;15.26;64.87;98832.44;108070;1288;21982;-62
2023/03/11 02:06:21;;;;;;;10.40;7.00;;;;;;;15.26;66.25;98822.02;107924;1288;21996;-62
2023/03/11 02:08:47;;;;;;;12.70;7.90;;;;;;;15.28;65.62;98820.48;108122;1288;21979;-67
2023/03/11 02:11:21;;;;;;;12.80;7.40;;;;;;;15.27;66.43;98816.48;108021;1288;22455;-62
2023/03/11 02:13:47;;;;;;;13.10;7.70;;;;;;;15.28;66.12;98811.11;108007;1288;21987;-67
2023/03/11 02:16:13;;;;;;;11.40;7.40;;;;;;;15.29;66.49;98804.38;107745;1283;21988;-61
2023/03/11 02:18:39;;;;;;;12.70;7.50;;;;;;;15.30;66.98;98801.14;107922;1288;24313;-62
2023/03/11 02:21:25;;;;;;;15.20;9.00;;;;;;;15.30;68.15;98802.18;108008;1288;23060;-62
2023/03/11 02:24:24;;;;;;;15.50;9.00;;;;;;;15.32;67.92;98803.16;108073;1288;23106;-63
2023/03/11 02:26:56;;;;;;;14.50;8.10;;;;;;;15.37;65.92;98796.48;107932;1288;21986;-67
2023/03/11 02:29:23;;;;;;;15.80;10.30;;;;;;;15.40;66.56;98796.00;108087;1288;24439;-62
2023/03/11 02:31:49;;;;;;;15.00;9.00;;;;;;;15.36;69.75;98788.63;107921;1288;21985;-68
2023/03/11 02:34:20;;;;;;;16.90;9.20;;;;;;;15.41;66.33;98777.67;107894;1288;22055;-62
2023/03/11 02:36:46;;;;;;;16.00;10.00;;;;;;;15.43;68.13;98774.08;108012;1288;21989;-67
2023/03/11 02:39:11;;;;;;;20.20;10.70;;;;;;;15.46;68.66;98774.08;108048;1288;21990;-63
2023/03/11 02:41:43;;;;;;;17.90;10.50;;;;;;;15.44;69.71;98765.01;108035;1288;22021;-63
2023/03/11 02:44:10;;;;;;;19.50;10.00;;;;;;;15.45;68.37;98752.71;108071;1288;21980;-63
2023/03/11 02:46:36;;;;;;;20.00;10.20;;;;;;;15.45;69.15;98746.86;107666;1288;21992;-63
2023/03/11 02:49:04;;;;;;;17.00;9.90;;;;;;;15.48;68.64;98748.52;107998;1288;21995;-63
2023/03/11 02:51:31;;;;;;;16.50;9.80;;;;;;;15.49;67.69;98747.57;107797;1288;21992;-68
2023/03/11 02:54:03;;;;;;;16.20;10.10;;;;;;;15.50;67.96;98744.48;107900;1288;22427;-63
2023/03/11 02:56:29;;;;;;;14.20;9.70;;;;;;;15.50;69.20;98746.09;108179;1288;22100;-63
2023/03/11 02:58:55;;;;;;;16.70;9.90;;;;;;;15.52;68.07;98736.59;108084;1283;21989;-63
2023/03/11 03:01:22;;;;;;;21.00;10.50;;;;;;;15.52;69.25;98737.82;108008;1288;21985;-68
2023/03/11 03:03:48;;;;;;;16.20;9.40;;;;;;;15.52;69.02;98736.42;107885;1288;21961;-68
2023/03/11 03:06:17;;;;;;;18.80;10.20;;;;;;;15.53;69.99;98725.57;108031;1283;23125;-63
2023/03/11 03:08:43;;;;;;;18.20;10.20;;;;;;;15.51;71.68;98723.58;108155;1288;21986;-63
2023/03/11 03:11:09;;;;;;;18.20;10.50;;;;;;;15.51;71.31;98717.07;108094;1288;21987;-64
2023/03/11 03:13:35;;;;;;;16.00;10.70;;;;;;;15.50;71.61;98715.89;108009;1288;21984;-64
2023/03/11 03:16:01;;;;;;;19.40;11.30;;;;;;;15.51;71.37;98715.44;108039;1288;22004;-68
2023/03/11 03:18:28;;;;;;;20.10;11.10;;;;;;;15.49;72.96;98707.63;107874;1288;208699;-67
2023/03/11 03:20:56;;;;;;;21.70;11.40;;;;;;;15.49;73.10;98696.11;108017;1288;23101;-64
2023/03/11 03:23:22;;;;;;;19.20;11.80;;;;;;;15.49;73.08;98687.11;108054;1283;21988;-64
2023/03/11 03:25:48;;;;;;;19.90;12.00;;;;;;;15.47;74.65;98685.47;108003;1288;22082;-63
2023/03/11 03:28:14;;;;;;;27.70;13.30;;;;;;;15.47;74.52;98684.23;108091;1288;21999;-69
2023/03/11 03:30:40;;;;;;;22.80;12.70;;;;;;;15.50;74.82;98681.21;108097;1288;22002;-63
2023/03/11 03:33:06;;;;;;;22.50;12.60;;;;;;;15.50;76.01;98674.86;108162;1275;21999;-68
2023/03/11 03:35:34;;;;;;;20.70;12.70;;;;;;;15.54;75.16;98669.48;108099;1288;21995;-67
2023/03/11 03:38:06;;;;;;;25.00;12.60;;;;;;;15.56;75.33;98667.80;108116;1280;22023;-67
2023/03/11 03:40:32;;;;;;;24.90;13.00;;;;;;;15.57;75.15;98658.86;108118;1288;21989;-67
2023/03/11 03:42:58;;;;;;;24.30;12.60;;;;;;;15.59;74.85;98652.90;108055;1287;22750;-68
2023/03/11 03:45:23;;;;;;;29.60;14.70;;;;;;;15.48;79.05;98644.59;107990;1288;21992;-63
2023/03/11 03:47:49;;;;;;;24.90;13.60;;;;;;;15.37;80.07;98637.63;107991;1288;22075;-63
2023/03/11 03:50:16;;;;;;;23.60;14.30;;;;;;;15.49;78.77;98630.02;108026;1288;21995;-67
2023/03/11 03:52:41;;;;;;;25.40;13.30;;;;;;;15.56;77.71;98630.29;107745;1288;23610;-64
2023/03/11 03:55:08;;;;;;;25.00;13.30;;;;;;;15.58;78.49;98620.81;108038;1288;22027;-65
2023/03/11 03:57:34;;;;;;;27.10;14.10;;;;;;;15.62;78.28;98616.50;108029;1283;22007;-67
2023/03/11 03:59:59;;;;;;;26.40;13.40;;;;;;;15.70;75.08;98615.17;108053;1288;22016;-66
2023/03/11 04:02:30;;;;;;;31.70;13.70;;;;;;;15.74;75.23;98619.10;108009;1288;22460;-64
2023/03/11 04:04:56;;;;;;;24.40;14.30;;;;;;;15.78;75.53;98612.52;108008;1282;21987;-64
2023/03/11 04:07:22;;;;;;;27.30;14.50;;;;;;;15.83;75.73;98610.42;108040;1288;22040;-67
2023/03/11 04:09:47;;;;;;;25.50;14.10;;;;;;;15.90;74.68;98606.53;107696;1287;23021;-65
2023/03/11 04:12:14;;;;;;;25.40;14.20;;;;;;;15.95;73.88;98597.71;108053;1288;22019;-64
2023/03/11 04:14:41;;;;;;;23.10;14.30;;;;;;;15.93;76.95;98599.08;108031;1288;21990;-66
2023/03/11 04:17:12;;;;;;;26.80;14.70;;;;;;;16.00;75.37;98593.86;108087;1276;23806;-64
2023/03/11 04:19:38;;;;;;;25.50;13.90;;;;;;;16.04;75.62;98588.65;108065;1286;23059;-64
2023/03/11 04:22:03;;;;;;;25.10;14.70;;;;;;;16.05;76.56;98580.60;108099;1288;21995;-67
2023/03/11 04:24:31;;;;;;;26.40;16.00;;;;;;;16.04;77.75;98575.20;108114;1288;21986;-65
2023/03/11 04:26:56;;;;;;;26.80;14.20;;;;;;;16.05;77.85;98579.55;108065;1288;21976;-67
2023/03/11 04:29:22;;;;;;;25.70;13.80;;;;;;;16.10;75.47;98582.48;107909;1288;21986;-65
2023/03/11 04:31:48;;;;;;;25.10;14.40;;;;;;;16.09;75.82;98582.49;107954;1286;21989;-67
2023/03/11 04:34:14;;;;;;;23.20;13.40;;;;;;;16.10;75.23;98576.27;108121;1285;21995;-67
2023/03/11 04:36:40;;;;;;;21.90;14.00;;;;;;;16.12;75.40;98570.31;108019;1288;22004;-67
2023/03/11 04:39:06;;;;;;;28.40;14.90;;;;;;;16.14;74.82;98573.35;108189;1288;22207;-66
2023/03/11 04:41:36;;;;;;;24.00;13.90;;;;;;;16.17;73.57;98569.92;108071;1288;24339;-67
2023/03/11 04:44:02;;;;;;;25.60;12.40;;;;;;;16.11;76.35;98569.81;108172;1287;21996;-67
2023/03/11 04:46:28;;;;;;;25.50;13.10;;;;;;;16.14;75.10;98568.56;108098;1288;23104;-66
2023/03/11 04:48:53;;;;;;;24.40;13.10;;;;;;;16.12;76.09;98570.45;108051;1288;22001;-67
2023/03/11 04:51:19;;;;;;;25.20;13.30;;;;;;;16.10;76.95;98569.02;107831;1288;22027;-67
2023/03/11 04:53:45;;;;;;;21.50;11.40;;;;;;;16.13;74.90;98561.20;108147;1288;21990;-65
2023/03/11 04:56:11;;;;;;;24.60;12.50;;;;;;;16.15;74.67;98557.31;108085;1287;21984;-67
2023/03/11 04:58:37;;;;;;;23.90;12.70;;;;;;;16.14;75.60;98556.86;108135;1288;21996;-66
2023/03/11 05:01:03;;;;;;;28.60;13.90;;;;;;;16.10;75.65;98563.14;107950;1288;21987;-67
2023/03/11 05:03:30;;;;;;;19.60;12.00;;;;;;;16.02;79.02;98563.14;108024;1285;21974;-64
2023/03/11 05:05:58;;;;;;;24.70;12.70;;;;;;;16.08;76.68;98565.03;107995;1288;22021;-68
2023/03/11 05:08:25;;;;;;;22.30;11.80;;;;;;;16.12;75.94;98556.85;108051;1288;22039;-67
2023/03/11 05:10:51;;;;;;;26.80;13.60;;;;;;;16.06;78.22;98553.70;107981;1288;22036;-66
2023/03/11 05:13:18;;;;;;;20.40;11.20;;;;;;;16.06;78.42;98552.65;108171;1287;21999;-67
2023/03/11 05:15:45;;;;;;;25.30;12.80;;;;;;;16.08;77.80;98550.55;108135;1287;22221;-66
2023/03/11 05:18:11;;;;;;;22.80;11.40;;;;;;;16.06;78.93;98547.47;108160;1288;23610;-67
2023/03/11 05:20:37;;;;;;;18.00;11.10;;;;;;;16.10;77.29;98538.56;107969;1288;23699;-67
2023/03/11 05:23:03;;;;;;;20.10;11.50;;;;;;;16.14;76.37;98533.48;108119;1283;21992;-64
2023/03/11 05:25:30;;;;;;;23.20;11.60;;;;;;;16.08;76.83;98533.23;108124;1288;22006;-67
2023/03/11 05:27:55;;;;;;;24.20;11.10;;;;;;;15.95;79.81;98534.06;108120;1288;21999;-67
2023/03/11 05:30:21;;;;;;;27.70;13.10;;;;;;;16.08;77.77;98526.11;108012;1288;21994;-68
2023/03/11 05:32:47;;;;;;;26.60;10.80;;;;;;;16.18;77.21;98524.05;108056;1288;21997;-67
2023/03/11 05:35:13;;;;;;;17.60;10.90;;;;;;;16.24;75.93;98518.94;108013;1288;21954;-67
2023/03/11 05:37:39;;;;;;;21.00;10.40;;;;;;;16.29;75.25;98516.47;108044;1281;22000;-66
2023/03/11 05:40:06;;;;;;;20.60;10.30;;;;;;;16.31;76.05;98512.29;108077;1288;24325;-67
2023/03/11 05:42:33;;;;;;;21.10;10.70;;;;;;;16.35;74.36;98504.73;108155;1288;23063;-66
2023/03/11 05:44:59;;;;;;;21.90;12.00;;;;;;;16.38;74.96;98504.77;108126;1288;22939;-67
2023/03/11 05:47:25;;;;;;;23.90;10.90;;;;;;;16.40;74.57;98489.74;107995;1288;21990;-66
2023/03/11 05:49:50;;;;;;;21.20;10.90;;;;;;;16.45;73.95;98487.23;108037;1288;21987;-65
2023/03/11 05:52:18;;;;;;;23.10;10.80;;;;;;;16.48;74.45;98486.17;108048;1288;21993;-67
2023/03/11 05:54:44;;;;;;;25.70;11.00;;;;;;;16.52;74.25;98491.27;108005;1288;21993;-66
2023/03/11 05:57:11;;;;;;;23.30;11.10;;;;;;;16.56;73.07;98498.41;108012;1288;23684;-66
2023/03/11 05:59:36;;;;;;;21.40;11.00;;;;;;;16.57;73.86;98503.44;108146;1288;22008;-66
2023/03/11 06:02:03;;;;;;;27.20;11.40;;;;;;;16.61;72.69;98498.08;108140;1288;22165;-67
2023/03/11 06:04:30;;;;;;;23.90;11.20;;;;;;;16.62;73.64;98497.29;108083;1288;21989;-66
2023/03/11 06:06:56;;;;;;;23.30;10.40;;;;;;;16.63;74.11;98498.48;108067;1286;22175;-66
2023/03/11 06:09:23;;;;;;;21.00;10.30;;;;;;;16.62;74.30;98493.74;107996;1288;21987;-66
2023/03/11 06:11:49;;;;;;;21.70;10.80;;;;;;;16.61;73.71;98493.09;107922;1288;22069;-67
2023/03/11 06:14:15;;;;;;;27.10;10.40;;;;;;;16.58;74.79;98501.60;108018;1288;21986;-68
2023/03/11 06:16:41;;;;;;;20.30;11.00;;;;;;;16.60;74.75;98507.32;108062;1288;22020;-66
2023/03/11 06:19:07;;;;;;;24.80;10.90;;;;;;;16.58;75.66;98511.40;108076;1288;21982;-66
2023/03/11 06:21:33;;;;;;;21.90;10.60;;;;;;;16.57;75.25;98507.69;108064;1288;22212;-68
2023/03/11 06:23:59;;;;;;;21.10;9.70;;;;;;;16.60;75.08;98510.19;108041;1287;23385;-67
2023/03/11 06:26:25;;;;;;;19.90;10.30;;;;;;;16.60;76.94;98512.50;108129;1288;21992;-69
2023/03/11 06:28:51;;;;;;;25.50;12.10;;;;;;;16.59;78.33;98511.83;108111;1288;21989;-68
2023/03/11 06:31:23;;;;;;;20.00;10.50;;;;;;;16.58;79.37;98502.50;108116;1288;22004;-66
2023/03/11 06:33:48;;;;;;;24.00;11.10;;;;;;;16.61;79.38;98501.95;108228;1287;23111;-68
2023/03/11 06:36:16;;;;;;;26.50;12.20;;;;;;;16.57;81.32;98503.66;108023;1288;21994;-67
2023/03/11 06:38:45;;;;;;;20.90;11.30;;;;;;;16.57;81.36;98501.89;108076;1288;21994;-68
2023/03/11 06:41:11;;;;;;;20.60;11.50;;;;;;;16.68;78.92;98493.73;108057;1288;21984;-68
2023/03/11 06:43:37;;;;;;;22.70;12.90;;;;;;;16.73;79.78;98492.88;108097;1288;22007;-66
2023/03/11 06:46:10;;;;;;;23.60;12.40;;;;;;;16.73;78.86;98494.63;108002;1288;21982;-68
2023/03/11 06:48:36;;;;;;;25.20;11.90;;;;;;;16.69;80.69;98486.05;108097;1288;21959;-68
2023/03/11 06:51:02;;;;;;;21.90;12.00;;;;;;;16.75;79.99;98481.52;108089;1288;21990;-66
2023/03/11 06:53:28;;;;;;;25.50;12.80;;;;;;;16.75;81.70;98482.94;108108;1288;22857;-65
2023/03/11 06:55:58;;;;;;;18.80;11.70;;;;;;;16.83;80.37;98475.33;108109;1288;21985;-69
2023/03/11 06:58:24;;;;;;;20.90;11.30;;;;;;;16.89;79.02;98462.73;108147;1288;21990;-68
2023/03/11 07:00:50;;;;;;;19.60;11.40;;;;;;;16.98;77.28;98456.30;108054;1288;21992;-68
2023/03/11 07:03:18;;;;;;;23.80;12.80;;;;;;;17.02;77.74;98454.27;108049;1288;22001;-68
2023/03/11 07:05:44;;;;;;;21.60;12.20;;;;;;;17.07;77.95;98452.30;107966;1288;21993;-66
2023/03/11 07:08:10;;;;;;;24.40;12.40;;;;;;;17.13;77.50;98444.79;108096;1287;22044;-67
2023/03/11 07:10:39;;;;;;;22.50;11.80;;;;;;;17.17;78.52;98448.59;107732;1288;21995;-68
2023/03/11 07:13:06;;;;;;;24.20;12.40;;;;;;;17.17;79.91;98442.88;107856;1288;21989;-66
2023/03/11 07:15:32;;;;;;;21.30;12.50;;;;;;;17.30;78.51;98442.88;107982;1288;21978;-67
2023/03/11 07:17:59;;;;;;;27.40;13.20;;;;;;;17.38;78.44;98443.72;108005;1288;22309;-66
2023/03/11 07:20:25;;;;;;;21.80;12.40;;;;;;;17.42;78.79;98441.86;107986;1288;22008;-68
2023/03/11 07:22:51;;;;;;;16.90;11.70;;;;;;;17.50;78.42;98435.74;108053;1288;21995;-67
2023/03/11 07:25:17;;;;;;;21.50;13.00;;;;;;;17.48;79.49;98433.30;108032;1288;21958;-69
2023/03/11 07:27:43;;;;;;;22.10;12.30;;;;;;;17.52;79.71;98430.52;108051;1288;21990;-67
2023/03/11 07:30:13;;;;;;;22.50;11.10;;;;;;;17.66;77.94;98425.59;107826;1288;24355;-68
2023/03/11 07:32:40;;;;;;;19.60;11.30;;;;;;;17.75;78.99;98425.85;108091;1288;22004;-66
2023/03/11 07:35:07;;;;;;;17.50;11.10;;;;;;;17.85;78.93;98421.55;107889;1288;22000;-67
2023/03/11 07:37:36;;;;;;;23.20;12.70;;;;;;;18.02;77.55;98421.21;108014;1288;23635;-67
2023/03/11 07:40:01;;;;;;;19.70;11.50;;;;;;;18.11;77.36;98413.82;108004;1288;22053;-67
2023/03/11 07:42:27;;;;;;;21.30;11.40;;;;;;;18.20;77.88;98410.35;108050;1288;22054;-68
2023/03/11 07:44:54;;;;;;;20.70;10.60;;;;;;;18.27;78.22;98406.78;107998;1288;22002;-69
2023/03/11 07:47:21;;;;;;;21.40;11.00;;;;;;;18.38;77.32;98403.84;108000;1288;22011;-67
2023/03/11 07:49:48;;;;;;;19.10;10.40;;;;;;;18.48;77.69;98397.58;107999;1288;23624;-69
2023/03/11 07:52:14;;;;;;;19.10;10.00;;;;;;;18.62;76.97;98390.67;108001;1288;22001;-69
2023/03/11 07:54:40;;;;;;;19.20;10.10;;;;;;;18.73;77.62;98391.01;108063;1288;21995;-68
2023/03/11 07:57:07;;;;;;;19.60;9.60;;;;;;;18.97;76.34;98387.56;108096;1288;22010;-68
2023/03/11 07:59:33;;;;;;;21.70;10.70;;;;;;;19.11;75.74;98382.63;108132;1288;21995;-68
2023/03/11 08:01:59;;;;;;;19.10;9.20;;;;;;;19.19;75.15;98379.16;108100;1288;22456;-67
2023/03/11 08:04:24;;;;;;;19.40;9.40;;;;;;;19.22;74.87;98374.30;108097;1288;21992;-67
2023/03/11 08:06:50;;;;;;;14.70;9.50;;;;;;;19.32;74.89;98363.70;107997;1288;21987;-67
2023/03/11 08:09:16;;;;;;;20.50;9.40;;;;;;;19.49;74.13;98358.91;107981;1288;21973;-67
2023/03/11 08:11:43;;;;;;;16.70;8.50;;;;;;;19.66;74.38;98351.13;108015;1288;21998;-68
2023/03/11 08:14:09;;;;;;;16.90;8.10;;;;;;;19.90;74.03;98347.41;108125;1288;21985;-66
2023/03/11 08:16:39;;;;;;;19.20;8.20;;;;;;;20.15;73.39;98348.91;108117;1287;21987;-69
2023/03/11 08:19:05;;;;;;;18.30;8.00;;;;;;;20.40;73.35;98340.42;108119;1288;21990;-69
2023/03/11 08:21:31;;;;;;;19.30;8.50;;;;;;;20.63;72.90;98332.03;108116;1286;21988;-68
2023/03/11 08:23:58;;;;;;;17.90;9.30;;;;;;;20.76;70.87;98327.93;108147;1284;21986;-68
2023/03/11 08:26:24;;;;;;;21.60;10.00;;;;;;;20.81;70.57;98326.92;108112;1288;22204;-67
2023/03/11 08:28:50;;;;;;;19.50;9.60;;;;;;;20.89;70.23;98318.27;108003;1287;22009;-67
2023/03/11 08:31:18;;;;;;;19.70;8.30;;;;;;;20.97;69.86;98313.39;108079;1287;21983;-68
2023/03/11 08:33:46;;;;;;;16.60;9.30;;;;;;;21.08;69.34;98314.55;108083;1288;21992;-68
2023/03/11 08:36:18;;;;;;;21.50;11.30;;;;;;;21.22;69.46;98310.66;108012;1287;22264;-68
2023/03/11 08:38:45;;;;;;;19.50;9.90;;;;;;;21.42;68.59;98312.81;108053;1288;21999;-68
2023/03/11 08:41:11;;;;;;;24.80;13.10;;;;;;;21.56;67.14;98309.77;107985;1288;21998;-67
2023/03/11 08:43:37;;;;;;;24.20;14.60;;;;;;;21.57;66.43;98306.83;108043;1288;21983;-67
2023/03/11 08:46:05;;;;;;;22.90;9.90;;;;;;;21.64;66.42;98305.14;107993;1283;21992;-66
2023/03/11 08:48:35;;;;;;;20.50;8.90;;;;;;;21.64;65.84;98306.63;108036;1288;22265;-68
2023/03/11 08:51:03;;;;;;;20.90;10.80;;;;;;;21.68;66.06;98304.23;108061;1286;21980;-68
2023/03/11 08:53:29;;;;;;;17.60;8.40;;;;;;;21.71;66.35;98301.14;108028;1288;21956;-67
2023/03/11 08:55:55;;;;;;;17.00;9.10;;;;;;;21.80;65.98;98295.86;108115;1288;21963;-67
2023/03/11 08:58:20;;;;;;;19.00;9.40;;;;;;;21.89;65.91;98287.00;108123;1287;21992;-68
2023/03/11 09:00:46;;;;;;;18.10;9.30;;;;;;;22.09;65.24;98278.02;108136;1288;21992;-66
2023/03/11 09:03:13;;;;;;;14.60;8.60;;;;;;;22.28;64.76;98270.34;107997;1288;21981;-67
2023/03/11 09:05:38;;;;;;;20.10;9.60;;;;;;;22.43;63.49;98269.28;108026;1288;22000;-68
2023/03/11 09:08:04;;;;;;;22.00;9.00;;;;;;;22.61;63.66;98265.88;108055;1288;22003;-68
2023/03/11 09:10:31;;;;;;;17.70;8.50;;;;;;;22.80;62.51;98270.44;108023;1288;21985;-68
2023/03/11 09:12:56;;;;;;;18.90;8.40;;;;;;;22.89;60.84;98270.52;108117;1287;21984;-68
2023/03/11 09:15:24;;;;;;;17.20;8.00;;;;;;;23.01;61.06;98262.20;108114;1288;21992;-68
2023/03/11 09:17:50;;;;;;;18.40;8.70;;;;;;;23.11;60.82;98258.38;108125;1288;21990;-68
2023/03/11 09:20:17;;;;;;;16.50;8.10;;;;;;;23.23;60.11;98260.23;108143;1288;21989;-68
2023/03/11 09:22:43;;;;;;;16.60;7.80;;;;;;;23.29;59.17;98257.15;108042;1288;21998;-67
2023/03/11 09:25:10;;;;;;;16.30;8.00;;;;;;;23.25;57.01;98260.10;108006;1287;21989;-68
2023/03/11 09:27:37;;;;;;;15.80;7.30;;;;;;;23.24;57.06;98256.75;108047;1288;23773;-68
2023/03/11 09:30:05;;;;;;;22.40;13.50;;;;;;;23.30;57.28;98245.27;108119;1286;21992;-68
2023/03/11 09:32:36;;;;;;;19.60;9.30;;;;;;;23.38;57.48;98244.77;108102;1288;23758;-68
2023/03/11 09:35:03;;;;;;;17.90;9.40;;;;;;;23.46;56.58;98245.60;108161;1287;22043;-68
2023/03/11 09:37:30;;;;;;;16.10;7.60;;;;;;;23.46;55.75;98243.12;108141;1288;22029;-68
2023/03/11 09:39:56;;;;;;;15.70;6.70;;;;;;;23.34;54.86;98242.73;108047;1288;21995;-68
2023/03/11 09:42:40;;;;;;;16.00;6.90;;;;;;;23.40;54.86;98243.70;107976;1280;21990;-67
2023/03/11 09:45:10;;;;;;;17.70;6.70;;;;;;;23.39;53.41;98238.46;107979;1288;21990;-68
2023/03/11 09:48:00;;;;;;;12.40;7.40;;;;;;;23.33;53.27;98231.77;107983;1288;22611;-67
2023/03/11 09:50:32;;;;;;;15.70;6.10;;;;;;;23.25;52.48;98226.24;107968;1288;21992;-68
2023/03/11 09:53:25;;;;;;;16.60;6.30;;;;;;;23.34;53.59;98221.27;108022;1288;21998;-68
2023/03/11 09:55:52;;;;;;;14.30;6.20;;;;;;;23.51;54.29;98219.53;107985;1288;22001;-68
2023/03/11 09:58:36;;;;;;;17.70;6.20;;;;;;;23.66;53.50;98226.95;108091;1288;21999;-67
2023/03/11 10:01:23;;;;;;;15.00;7.30;;;;;;;23.81;53.03;98226.52;108021;1288;22005;-68
2023/03/11 10:03:51;;;;;;;16.80;6.50;;;;;;;23.98;52.61;98229.00;107917;1288;21999;-67
2023/03/11 10:06:25;;;;;;;16.60;5.70;;;;;;;24.11;51.88;98226.23;108024;1288;22675;-67
2023/03/11 10:09:32;;;;;;;15.10;5.60;;;;;;;24.23;51.84;98227.17;108090;1288;22008;-68
2023/03/11 10:12:19;;;;;;;16.30;6.10;;;;;;;24.37;51.99;98220.38;108078;1288;21990;-69
2023/03/11 10:15:04;;;;;;;16.30;6.70;;;;;;;24.54;50.93;98214.50;107839;1288;22706;-68
2023/03/11 10:17:43;;;;;;;15.20;7.00;;;;;;;24.47;50.17;98207.79;108041;1288;22000;-68
2023/03/11 10:20:23;;;;;;;16.00;6.70;;;;;;;24.51;50.74;98203.66;107994;1288;21987;-68
2023/03/11 10:23:01;;;;;;;19.20;7.60;;;;;;;24.51;50.01;98196.15;107995;1288;21996;-69
2023/03/11 10:25:31;;;;;;;17.50;5.90;;;;;;;24.48;49.58;98194.12;107862;1288;22022;-66
2023/03/11 10:28:04;;;;;;;15.70;5.90;;;;;;;24.50;49.60;98183.64;108039;1288;22000;-67
2023/03/11 10:30:57;;;;;;;16.20;5.70;;;;;;;24.39;49.37;98177.48;107997;1288;22024;-67
2023/03/11 10:33:57;;;;;;;17.10;6.20;;;;;;;24.18;48.74;98173.55;108020;1288;21994;-67
2023/03/11 10:36:26;;;;;;;15.30;5.90;;;;;;;24.06;48.74;98172.30;107984;1288;21990;-69
2023/03/11 10:38:52;;;;;;;16.50;6.70;;;;;;;23.99;49.00;98174.94;108065;1288;22141;-68
2023/03/11 10:41:25;;;;;;;19.10;6.10;;;;;;;23.87;48.85;98176.40;108020;1288;22001;-67
2023/03/11 10:43:56;;;;;;;18.40;6.90;;;;;;;23.84;48.92;98178.10;107856;1287;21994;-67
2023/03/11 10:46:24;;;;;;;16.30;5.60;;;;;;;23.84;48.94;98179.73;107983;1287;22006;-68
2023/03/11 10:48:50;;;;;;;16.10;5.10;;;;;;;23.93;49.37;98179.22;108008;1288;22752;-67
2023/03/11 10:51:33;;;;;;;13.10;5.30;;;;;;;24.00;48.79;98176.34;108006;1288;21998;-68
2023/03/11 10:53:59;;;;;;;13.80;5.20;;;;;;;23.95;48.62;98170.89;108043;1281;21992;-69
2023/03/11 10:56:25;;;;;;;14.50;6.20;;;;;;;23.90;48.48;98174.27;108106;1288;21999;-68
2023/03/11 10:58:50;;;;;;;16.80;5.70;;;;;;;23.88;48.44;98172.14;108106;1287;21999;-68
2023/03/11 11:01:17;;;;;;;15.60;5.90;;;;;;;23.80;48.18;98168.66;108092;1288;21986;-69
2023/03/11 11:03:45;;;;;;;17.50;5.80;;;;;;;23.63;47.98;98166.73;108203;1288;21995;-69
2023/03/11 11:06:28;;;;;;;16.10;5.60;;;;;;;23.46;48.11;98154.23;108007;1288;22215;-67
2023/03/11 11:09:14;;;;;;;13.50;5.10;;;;;;;23.37;48.76;98146.33;108000;1287;22026;-69
2023/03/11 11:11:42;;;;;;;13.40;5.30;;;;;;;23.26;48.82;98141.55;108054;1284;22574;-68
2023/03/11 11:14:09;;;;;;;13.70;5.60;;;;;;;23.15;49.12;98137.19;108118;1288;23715;-69
2023/03/11 11:16:35;;;;;;;16.90;6.00;;;;;;;23.11;49.43;98128.87;108020;1288;22018;-67
2023/03/11 11:19:07;;;;;;;16.90;5.50;;;;;;;23.14;49.67;98120.14;107887;1283;21994;-65